sensor_id;sensor_type;location;lat;lon;timestamp;pressure;altitude;pressure_sealevel;temperature;humidity
65553;BME280;72126;51.560;14.368;2023-11-22T00:01:11;100972.81;;;12.77;64.12
65553;BME280;72126;51.560;14.368;2023-11-22T00:03:36;100977.09;;;12.78;64.57
65553;BME280;72126;51.560;14.368;2023-11-22T00:06:01;100982.34;;;12.78;64.15
65553;BME280;72126;51.560;14.368;2023-11-22T00:08:26;100984.16;;;12.77;64.65
65553;BME280;72126;51.560;14.368;2023-11-22T00:10:51;100982.50;;;12.76;64.42
65553;BME280;72126;51.560;14.368;2023-11-22T00:13:17;100983.50;;;12.75;64.50
65553;BME280;72126;51.560;14.368;2023-11-22T00:15:42;100989.56;;;12.76;64.01
65553;BME280;72126;51.560;14.368;2023-11-22T00:18:07;100998.44;;;12.75;64.51
65553;BME280;72126;51.560;14.368;2023-11-22T00:20:32;100999.25;;;12.75;64.28
65553;BME280;72126;51.560;14.368;2023-11-22T00:22:57;101000.25;;;12.74;64.57
65553;BME280;72126;51.560;14.368;2023-11-22T00:25:23;100992.34;;;12.74;64.47
65553;BME280;72126;51.560;14.368;2023-11-22T00:27:48;100997.75;;;12.73;64.11
65553;BME280;72126;51.560;14.368;2023-11-22T00:30:14;100991.66;;;12.72;64.41
65553;BME280;72126;51.560;14.368;2023-11-22T00:32:40;101003.00;;;12.73;64.22
65553;BME280;72126;51.560;14.368;2023-11-22T00:35:05;101004.81;;;12.72;64.33
65553;BME280;72126;51.560;14.368;2023-11-22T00:37:30;100996.09;;;12.71;64.24
65553;BME280;72126;51.560;14.368;2023-11-22T00:39:56;101004.81;;;12.72;64.49
65553;BME280;72126;51.560;14.368;2023-11-22T00:42:21;100991.81;;;12.70;64.33
65553;BME280;72126;51.560;14.368;2023-11-22T00:44:46;100991.00;;;12.70;64.42
65553;BME280;72126;51.560;14.368;2023-11-22T00:47:11;100993.63;;;12.70;64.41
65553;BME280;72126;51.560;14.368;2023-11-22T00:49:37;100976.22;;;12.69;64.17
65553;BME280;72126;51.560;14.368;2023-11-22T00:52:02;100985.75;;;12.70;64.16
65553;BME280;72126;51.560;14.368;2023-11-22T00:54:27;100984.09;;;12.69;64.36
65553;BME280;72126;51.560;14.368;2023-11-22T00:56:52;100992.94;;;12.68;64.25
65553;BME280;72126;51.560;14.368;2023-11-22T00:59:17;101008.69;;;12.68;64.19
65553;BME280;72126;51.560;14.368;2023-11-22T01:01:46;101013.13;;;12.67;64.49
65553;BME280;72126;51.560;14.368;2023-11-22T01:04:11;101012.31;;;12.67;64.39
65553;BME280;72126;51.560;14.368;2023-11-22T01:06:36;101016.75;;;12.66;64.45
65553;BME280;72126;51.560;14.368;2023-11-22T01:09:01;101000.16;;;12.66;64.03
65553;BME280;72126;51.560;14.368;2023-11-22T01:11:27;100993.25;;;12.65;64.38
65553;BME280;72126;51.560;14.368;2023-11-22T01:13:52;100995.88;;;12.65;64.39
65553;BME280;72126;51.560;14.368;2023-11-22T01:16:17;101004.75;;;12.64;64.30
65553;BME280;72126;51.560;14.368;2023-11-22T01:18:42;101014.28;;;12.65;64.05
65553;BME280;72126;51.560;14.368;2023-11-22T01:21:08;101018.72;;;12.64;64.07
65553;BME280;72126;51.560;14.368;2023-11-22T01:23:33;101025.75;;;12.64;64.36
65553;BME280;72126;51.560;14.368;2023-11-22T01:25:58;101036.28;;;12.64;63.88
65553;BME280;72126;51.560;14.368;2023-11-22T01:28:24;101047.59;;;12.64;63.93
65553;BME280;72126;51.560;14.368;2023-11-22T01:30:49;101058.28;;;12.63;64.45
65553;BME280;72126;51.560;14.368;2023-11-22T01:33:14;101052.16;;;12.62;64.04
65553;BME280;72126;51.560;14.368;2023-11-22T01:35:40;101055.78;;;12.61;64.11
65553;BME280;72126;51.560;14.368;2023-11-22T01:38:05;101061.84;;;12.62;64.01
65553;BME280;72126;51.560;14.368;2023-11-22T01:40:31;101061.03;;;12.61;64.34
65553;BME280;72126;51.560;14.368;2023-11-22T01:42:56;101063.66;;;12.61;63.96
65553;BME280;72126;51.560;14.368;2023-11-22T01:45:21;101055.94;;;12.60;64.14
65553;BME280;72126;51.560;14.368;2023-11-22T01:47:46;101065.63;;;12.59;64.33
65553;BME280;72126;51.560;14.368;2023-11-22T01:50:12;101076.94;;;12.60;64.26
65553;BME280;72126;51.560;14.368;2023-11-22T01:52:38;101083.19;;;12.59;64.53
65553;BME280;72126;51.560;14.368;2023-11-22T01:55:04;101082.34;;;12.58;64.43
65553;BME280;72126;51.560;14.368;2023-11-22T01:57:32;101090.34;;;12.57;64.31
65553;BME280;72126;51.560;14.368;2023-11-22T01:59:58;101096.47;;;12.57;63.89
65553;BME280;72126;51.560;14.368;2023-11-22T02:02:23;101094.78;;;12.56;64.23
65553;BME280;72126;51.560;14.368;2023-11-22T02:04:48;101097.41;;;12.56;64.00
65553;BME280;72126;51.560;14.368;2023-11-22T02:07:14;101092.16;;;12.56;64.14
65553;BME280;72126;51.560;14.368;2023-11-22T02:09:39;101100.03;;;12.56;64.30
65553;BME280;72126;51.560;14.368;2023-11-22T02:12:04;101092.31;;;12.55;64.25
65553;BME280;72126;51.560;14.368;2023-11-22T02:14:29;101097.56;;;12.55;64.37
65553;BME280;72126;51.560;14.368;2023-11-22T02:16:55;101092.31;;;12.55;64.01
65553;BME280;72126;51.560;14.368;2023-11-22T02:19:20;101095.94;;;12.54;63.95
65553;BME280;72126;51.560;14.368;2023-11-22T02:21:45;101088.06;;;12.54;64.47
65553;BME280;72126;51.560;14.368;2023-11-22T02:24:10;101084.59;;;12.53;64.32
65553;BME280;72126;51.560;14.368;2023-11-22T02:26:35;101087.22;;;12.53;64.35
65553;BME280;72126;51.560;14.368;2023-11-22T02:29:02;101088.22;;;12.52;64.09
65553;BME280;72126;51.560;14.368;2023-11-22T02:31:27;101091.66;;;12.53;64.10
65553;BME280;72126;51.560;14.368;2023-11-22T02:33:53;101090.00;;;12.52;64.01
65553;BME280;72126;51.560;14.368;2023-11-22T02:36:18;101096.09;;;12.52;64.35
65553;BME280;72126;51.560;14.368;2023-11-22T02:38:44;101096.22;;;12.51;63.99
65553;BME280;72126;51.560;14.368;2023-11-22T02:41:09;101104.91;;;12.51;64.14
65553;BME280;72126;51.560;14.368;2023-11-22T02:43:34;101100.63;;;12.50;64.20
65553;BME280;72126;51.560;14.368;2023-11-22T02:45:59;101100.63;;;12.50;64.13
65553;BME280;72126;51.560;14.368;2023-11-22T02:48:24;101105.06;;;12.50;64.12
65553;BME280;72126;51.560;14.368;2023-11-22T02:50:50;101112.13;;;12.49;64.25
65553;BME280;72126;51.560;14.368;2023-11-22T02:53:15;101103.41;;;12.49;63.90
65553;BME280;72126;51.560;14.368;2023-11-22T02:55:40;101110.47;;;12.48;64.40
65553;BME280;72126;51.560;14.368;2023-11-22T02:58:05;101110.47;;;12.48;64.33
65553;BME280;72126;51.560;14.368;2023-11-22T03:00:30;101117.53;;;12.48;64.15
65553;BME280;72126;51.560;14.368;2023-11-22T03:02:55;101114.91;;;12.48;64.32
65553;BME280;72126;51.560;14.368;2023-11-22T03:05:21;101115.88;;;12.47;63.98
65553;BME280;72126;51.560;14.368;2023-11-22T03:07:47;101121.13;;;12.47;64.23
65553;BME280;72126;51.560;14.368;2023-11-22T03:10:12;101119.47;;;12.45;63.92
65553;BME280;72126;51.560;14.368;2023-11-22T03:12:40;101116.84;;;12.45;64.26
65553;BME280;72126;51.560;14.368;2023-11-22T03:15:05;101117.00;;;12.44;64.13
65553;BME280;72126;51.560;14.368;2023-11-22T03:17:31;101120.44;;;12.44;64.41
65553;BME280;72126;51.560;14.368;2023-11-22T03:19:57;101120.44;;;12.44;64.23
65553;BME280;72126;51.560;14.368;2023-11-22T03:22:25;101133.56;;;12.44;63.91
65553;BME280;72126;51.560;14.368;2023-11-22T03:24:50;101132.91;;;12.42;64.19
65553;BME280;72126;51.560;14.368;2023-11-22T03:27:15;101149.31;;;12.44;64.25
65553;BME280;72126;51.560;14.368;2023-11-22T03:29:41;101153.09;;;12.42;64.10
65553;BME280;72126;51.560;14.368;2023-11-22T03:32:06;101170.66;;;12.41;64.31
65553;BME280;72126;51.560;14.368;2023-11-22T03:34:31;101177.56;;;12.42;63.87
65553;BME280;72126;51.560;14.368;2023-11-22T03:36:57;101181.97;;;12.42;63.84
65553;BME280;72126;51.560;14.368;2023-11-22T03:39:22;101187.22;;;12.42;64.05
65553;BME280;72126;51.560;14.368;2023-11-22T03:41:47;101196.91;;;12.41;64.27
65553;BME280;72126;51.560;14.368;2023-11-22T03:44:12;101211.84;;;12.41;64.08
65553;BME280;72126;51.560;14.368;2023-11-22T03:46:38;101211.00;;;12.40;64.20
65553;BME280;72126;51.560;14.368;2023-11-22T03:49:04;101204.91;;;12.40;64.05
65553;BME280;72126;51.560;14.368;2023-11-22T03:51:30;101208.38;;;12.40;63.97
65553;BME280;72126;51.560;14.368;2023-11-22T03:53:55;101210.31;;;12.38;63.79
65553;BME280;72126;51.560;14.368;2023-11-22T03:56:20;101206.88;;;12.38;64.29
65553;BME280;72126;51.560;14.368;2023-11-22T03:58:45;101214.75;;;12.38;63.84
65553;BME280;72126;51.560;14.368;2023-11-22T04:01:10;101222.63;;;12.38;64.21
65553;BME280;72126;51.560;14.368;2023-11-22T04:03:36;101229.66;;;12.37;63.92
65553;BME280;72126;51.560;14.368;2023-11-22T04:06:01;101235.91;;;12.36;63.86
65553;BME280;72126;51.560;14.368;2023-11-22T04:08:26;101248.22;;;12.36;63.80
65553;BME280;72126;51.560;14.368;2023-11-22T04:10:51;101256.91;;;12.36;63.88
65553;BME280;72126;51.560;14.368;2023-11-22T04:13:16;101254.44;;;12.35;64.05
65553;BME280;72126;51.560;14.368;2023-11-22T04:15:42;101263.13;;;12.35;64.11
65553;BME280;72126;51.560;14.368;2023-11-22T04:18:07;101265.88;;;12.34;63.82
65553;BME280;72126;51.560;14.368;2023-11-22T04:20:32;101274.59;;;12.34;64.18
65553;BME280;72126;51.560;14.368;2023-11-22T04:22:57;101284.25;;;12.34;64.19
65553;BME280;72126;51.560;14.368;2023-11-22T04:25:22;101288.69;;;12.33;63.82
65553;BME280;72126;51.560;14.368;2023-11-22T04:27:47;101297.41;;;12.34;63.82
65553;BME280;72126;51.560;14.368;2023-11-22T04:30:13;101293.94;;;12.33;63.71
65553;BME280;72126;51.560;14.368;2023-11-22T04:32:38;101297.53;;;12.32;63.91
65553;BME280;72126;51.560;14.368;2023-11-22T04:35:03;101294.91;;;12.32;64.10
65553;BME280;72126;51.560;14.368;2023-11-22T04:37:29;101294.25;;;12.30;63.73
65553;BME280;72126;51.560;14.368;2023-11-22T04:39:54;101296.72;;;12.22;63.57
65553;BME280;72126;51.560;14.368;2023-11-22T04:42:20;101300.91;;;12.15;63.42
65553;BME280;72126;51.560;14.368;2023-11-22T04:44:45;101300.66;;;12.08;63.51
65553;BME280;72126;51.560;14.368;2023-11-22T04:47:10;101308.94;;;12.04;63.50
65553;BME280;72126;51.560;14.368;2023-11-22T04:49:35;101317.06;;;12.01;63.35
65553;BME280;72126;51.560;14.368;2023-11-22T04:52:00;101321.66;;;11.99;63.37
65553;BME280;72126;51.560;14.368;2023-11-22T04:54:25;101314.75;;;11.98;63.19
65553;BME280;72126;51.560;14.368;2023-11-22T04:56:51;101316.53;;;11.97;62.79
65553;BME280;72126;51.560;14.368;2023-11-22T04:59:16;101314.91;;;11.96;62.73
65553;BME280;72126;51.560;14.368;2023-11-22T05:01:41;101309.66;;;11.96;63.02
65553;BME280;72126;51.560;14.368;2023-11-22T05:04:06;101323.59;;;11.97;62.68
65553;BME280;72126;51.560;14.368;2023-11-22T05:06:31;101322.75;;;11.96;62.92
65553;BME280;72126;51.560;14.368;2023-11-22T05:08:57;101332.44;;;11.96;62.24
65553;BME280;72126;51.560;14.368;2023-11-22T05:11:22;101337.81;;;11.94;62.72
65553;BME280;72126;51.560;14.368;2023-11-22T05:13:47;101338.91;;;11.91;62.43
65553;BME280;72126;51.560;14.368;2023-11-22T05:16:12;101348.31;;;11.94;62.20
65553;BME280;72126;51.560;14.368;2023-11-22T05:18:37;101351.75;;;11.95;62.26
65553;BME280;72126;51.560;14.368;2023-11-22T05:21:03;101368.47;;;11.94;62.54
65553;BME280;72126;51.560;14.368;2023-11-22T05:23:28;101371.09;;;11.94;62.57
65553;BME280;72126;51.560;14.368;2023-11-22T05:25:53;101376.34;;;11.94;62.25
65553;BME280;72126;51.560;14.368;2023-11-22T05:28:18;101370.13;;;11.95;62.06
65553;BME280;72126;51.560;14.368;2023-11-22T05:30:43;101364.03;;;11.94;62.18
65553;BME280;72126;51.560;14.368;2023-11-22T05:33:08;101365.84;;;11.94;62.52
65553;BME280;72126;51.560;14.368;2023-11-22T05:35:34;101365.00;;;11.93;62.12
65553;BME280;72126;51.560;14.368;2023-11-22T05:37:59;101365.84;;;11.94;62.30
65553;BME280;72126;51.560;14.368;2023-11-22T05:40:24;101365.00;;;11.93;62.17
65553;BME280;72126;51.560;14.368;2023-11-22T05:42:49;101362.53;;;11.91;62.43
65553;BME280;72126;51.560;14.368;2023-11-22T05:45:15;101371.09;;;11.94;62.40
65553;BME280;72126;51.560;14.368;2023-11-22T05:47:40;101360.59;;;11.94;62.16
65553;BME280;72126;51.560;14.368;2023-11-22T05:50:07;101351.91;;;11.93;62.24
65553;BME280;72126;51.560;14.368;2023-11-22T05:52:32;101352.88;;;11.92;62.15
65553;BME280;72126;51.560;14.368;2023-11-22T05:54:57;101351.22;;;11.91;62.04
65553;BME280;72126;51.560;14.368;2023-11-22T05:57:22;101342.38;;;11.92;62.26
65553;BME280;72126;51.560;14.368;2023-11-22T05:59:48;101351.22;;;11.91;61.95
65553;BME280;72126;51.560;14.368;2023-11-22T06:02:13;101359.91;;;11.91;62.07
65553;BME280;72126;51.560;14.368;2023-11-22T06:04:38;101356.47;;;11.91;61.95
65553;BME280;72126;51.560;14.368;2023-11-22T06:07:03;101350.41;;;11.90;62.23
65553;BME280;72126;51.560;14.368;2023-11-22T06:09:29;101353.84;;;11.91;62.11
65553;BME280;72126;51.560;14.368;2023-11-22T06:11:54;101377.47;;;11.91;62.28
65553;BME280;72126;51.560;14.368;2023-11-22T06:14:19;101366.13;;;11.90;62.23
65553;BME280;72126;51.560;14.368;2023-11-22T06:16:44;101375.81;;;11.90;62.28
65553;BME280;72126;51.560;14.368;2023-11-22T06:19:09;101389.88;;;11.89;62.36
65553;BME280;72126;51.560;14.368;2023-11-22T06:21:35;101411.69;;;11.89;62.13
65553;BME280;72126;51.560;14.368;2023-11-22T06:24:00;101411.69;;;11.89;62.23
65553;BME280;72126;51.560;14.368;2023-11-22T06:26:25;101402.03;;;11.90;61.88
65553;BME280;72126;51.560;14.368;2023-11-22T06:28:50;101403.81;;;11.89;62.09
65553;BME280;72126;51.560;14.368;2023-11-22T06:31:16;101416.94;;;11.89;62.00
65553;BME280;72126;51.560;14.368;2023-11-22T06:33:41;101425.78;;;11.88;61.84
65553;BME280;72126;51.560;14.368;2023-11-22T06:36:06;101435.44;;;11.88;62.07
65553;BME280;72126;51.560;14.368;2023-11-22T06:38:32;101462.50;;;11.88;62.05
65553;BME280;72126;51.560;14.368;2023-11-22T06:40:57;101462.50;;;11.88;62.16
65553;BME280;72126;51.560;14.368;2023-11-22T06:43:22;101452.16;;;11.87;62.04
65553;BME280;72126;51.560;14.368;2023-11-22T06:45:47;101445.94;;;11.88;61.95
65553;BME280;72126;51.560;14.368;2023-11-22T06:48:12;101456.44;;;11.88;62.30
65553;BME280;72126;51.560;14.368;2023-11-22T06:50:38;101445.13;;;11.87;62.22
65553;BME280;72126;51.560;14.368;2023-11-22T06:53:03;101460.84;;;11.87;61.95
65553;BME280;72126;51.560;14.368;2023-11-22T06:55:28;101457.41;;;11.87;62.21
65553;BME280;72126;51.560;14.368;2023-11-22T06:57:53;101475.78;;;11.87;62.08
65553;BME280;72126;51.560;14.368;2023-11-22T07:00:18;101490.84;;;11.85;62.02
65553;BME280;72126;51.560;14.368;2023-11-22T07:02:44;101496.78;;;11.87;62.19
65553;BME280;72126;51.560;14.368;2023-11-22T07:05:09;101495.94;;;11.86;62.17
65553;BME280;72126;51.560;14.368;2023-11-22T07:07:35;101480.19;;;11.86;62.09
65553;BME280;72126;51.560;14.368;2023-11-22T07:10:00;101472.47;;;11.85;62.10
65553;BME280;72126;51.560;14.368;2023-11-22T07:12:25;101459.34;;;11.85;62.05
65553;BME280;72126;51.560;14.368;2023-11-22T07:14:50;101455.75;;;11.86;62.09
65553;BME280;72126;51.560;14.368;2023-11-22T07:17:16;101454.94;;;11.85;62.15
65553;BME280;72126;51.560;14.368;2023-11-22T07:19:41;101454.94;;;11.85;62.11
65553;BME280;72126;51.560;14.368;2023-11-22T07:22:06;101448.03;;;11.84;62.01
65553;BME280;72126;51.560;14.368;2023-11-22T07:24:32;101444.53;;;11.84;61.89
65553;BME280;72126;51.560;14.368;2023-11-22T07:26:57;101455.91;;;11.84;62.06
65553;BME280;72126;51.560;14.368;2023-11-22T07:29:22;101458.53;;;11.84;62.12
65553;BME280;72126;51.560;14.368;2023-11-22T07:31:47;101464.72;;;11.83;62.10
65553;BME280;72126;51.560;14.368;2023-11-22T07:34:12;101454.22;;;11.83;61.99
65553;BME280;72126;51.560;14.368;2023-11-22T07:36:37;101454.22;;;11.83;62.12
65553;BME280;72126;51.560;14.368;2023-11-22T07:39:03;101450.75;;;11.83;61.92
65553;BME280;72126;51.560;14.368;2023-11-22T07:41:28;101462.91;;;11.84;62.29
65553;BME280;72126;51.560;14.368;2023-11-22T07:43:53;101468.16;;;11.84;61.88
65553;BME280;72126;51.560;14.368;2023-11-22T07:46:18;101477.16;;;11.81;62.16
65553;BME280;72126;51.560;14.368;2023-11-22T07:48:44;101493.72;;;11.82;62.13
65553;BME280;72126;51.560;14.368;2023-11-22T07:51:09;101492.03;;;11.81;61.98
65553;BME280;72126;51.560;14.368;2023-11-22T07:53:34;101494.53;;;11.82;61.94
65553;BME280;72126;51.560;14.368;2023-11-22T07:56:00;101503.38;;;11.81;61.92
65553;BME280;72126;51.560;14.368;2023-11-22T07:58:26;101513.88;;;11.81;61.83
65553;BME280;72126;51.560;14.368;2023-11-22T08:00:51;101520.88;;;11.81;61.69
65553;BME280;72126;51.560;14.368;2023-11-22T08:03:16;101532.25;;;11.81;61.99
65553;BME280;72126;51.560;14.368;2023-11-22T08:05:41;101543.69;;;11.80;61.66
65553;BME280;72126;51.560;14.368;2023-11-22T08:08:06;101547.13;;;11.81;61.85
65553;BME280;72126;51.560;14.368;2023-11-22T08:10:32;101545.47;;;11.80;61.93
65553;BME280;72126;51.560;14.368;2023-11-22T08:12:57;101552.50;;;11.79;62.12
65553;BME280;72126;51.560;14.368;2023-11-22T08:15:22;101559.41;;;11.80;61.77
65553;BME280;72126;51.560;14.368;2023-11-22T08:17:48;101564.66;;;11.80;61.80
65553;BME280;72126;51.560;14.368;2023-11-22T08:20:13;101564.66;;;11.80;61.80
65553;BME280;72126;51.560;14.368;2023-11-22T08:22:39;101570.88;;;11.79;61.95
65553;BME280;72126;51.560;14.368;2023-11-22T08:25:08;101562.03;;;11.80;61.81
65553;BME280;72126;51.560;14.368;2023-11-22T08:27:34;101562.19;;;11.79;62.00
65553;BME280;72126;51.560;14.368;2023-11-22T08:29:59;101564.66;;;11.80;61.89
65553;BME280;72126;51.560;14.368;2023-11-22T08:32:24;101558.69;;;11.78;61.65
65553;BME280;72126;51.560;14.368;2023-11-22T08:34:50;101560.38;;;11.79;61.90
65553;BME280;72126;51.560;14.368;2023-11-22T08:37:15;101559.41;;;11.80;62.07
65553;BME280;72126;51.560;14.368;2023-11-22T08:39:41;101563.84;;;11.80;61.94
65553;BME280;72126;51.560;14.368;2023-11-22T08:42:07;101562.19;;;11.79;61.82
65553;BME280;72126;51.560;14.368;2023-11-22T08:44:35;101565.63;;;11.79;61.90
65553;BME280;72126;51.560;14.368;2023-11-22T08:47:00;101562.19;;;11.79;61.73
65553;BME280;72126;51.560;14.368;2023-11-22T08:49:26;101556.06;;;11.78;61.90
65553;BME280;72126;51.560;14.368;2023-11-22T08:51:51;101543.81;;;11.79;61.68
65553;BME280;72126;51.560;14.368;2023-11-22T08:54:16;101544.75;;;11.78;61.52
65553;BME280;72126;51.560;14.368;2023-11-22T08:56:41;101554.31;;;11.79;61.67
65553;BME280;72126;51.560;14.368;2023-11-22T08:59:06;101562.19;;;11.79;61.77
65553;BME280;72126;51.560;14.368;2023-11-22T09:01:31;101568.25;;;11.79;61.68
65553;BME280;72126;51.560;14.368;2023-11-22T09:03:57;101568.38;;;11.78;61.80
65553;BME280;72126;51.560;14.368;2023-11-22T09:06:22;101577.06;;;11.78;61.68
65553;BME280;72126;51.560;14.368;2023-11-22T09:08:47;101579.69;;;11.78;61.63
65553;BME280;72126;51.560;14.368;2023-11-22T09:11:12;101586.72;;;11.78;61.87
65553;BME280;72126;51.560;14.368;2023-11-22T09:13:37;101591.97;;;11.78;61.60
65553;BME280;72126;51.560;14.368;2023-11-22T09:16:03;101585.91;;;11.77;61.65
65553;BME280;72126;51.560;14.368;2023-11-22T09:18:28;101579.84;;;11.77;61.96
65553;BME280;72126;51.560;14.368;2023-11-22T09:20:54;101579.84;;;11.77;61.59
65553;BME280;72126;51.560;14.368;2023-11-22T09:23:19;101590.31;;;11.77;61.50
65553;BME280;72126;51.560;14.368;2023-11-22T09:25:44;101583.28;;;11.77;61.79
65553;BME280;72126;51.560;14.368;2023-11-22T09:28:09;101569.34;;;11.77;61.56
65553;BME280;72126;51.560;14.368;2023-11-22T09:30:35;101566.72;;;11.77;61.60
65553;BME280;72126;51.560;14.368;2023-11-22T09:33:07;101562.44;;;11.76;61.69
65553;BME280;72126;51.560;14.368;2023-11-22T09:35:33;101555.38;;;11.76;61.94
65553;BME280;72126;51.560;14.368;2023-11-22T09:38:02;101545.88;;;11.75;61.66
65553;BME280;72126;51.560;14.368;2023-11-22T09:40:28;101540.63;;;11.75;61.83
65553;BME280;72126;51.560;14.368;2023-11-22T09:42:53;101546.69;;;11.76;61.70
65553;BME280;72126;51.560;14.368;2023-11-22T09:45:19;101557.19;;;11.76;61.62
65553;BME280;72126;51.560;14.368;2023-11-22T09:47:45;101565.06;;;11.76;61.85
65553;BME280;72126;51.560;14.368;2023-11-22T09:50:16;101568.66;;;11.75;61.53
65553;BME280;72126;51.560;14.368;2023-11-22T09:52:43;101577.34;;;11.75;61.85
65553;BME280;72126;51.560;14.368;2023-11-22T09:55:11;101563.53;;;11.73;61.74
65553;BME280;72126;51.560;14.368;2023-11-22T09:57:38;101560.78;;;11.75;61.94
65553;BME280;72126;51.560;14.368;2023-11-22T10:00:05;101560.91;;;11.73;61.70
65553;BME280;72126;51.560;14.368;2023-11-22T10:02:34;101570.44;;;11.74;61.82
65553;BME280;72126;51.560;14.368;2023-11-22T10:04:59;101571.41;;;11.73;61.56
65553;BME280;72126;51.560;14.368;2023-11-22T10:07:25;101561.75;;;11.74;61.77
65553;BME280;72126;51.560;14.368;2023-11-22T10:09:50;101559.13;;;11.74;61.60
65553;BME280;72126;51.560;14.368;2023-11-22T10:12:19;101565.19;;;11.74;61.54
65553;BME280;72126;51.560;14.368;2023-11-22T10:14:46;101567.81;;;11.74;61.83
65553;BME280;72126;51.560;14.368;2023-11-22T10:17:11;101568.78;;;11.73;61.72
65553;BME280;72126;51.560;14.368;2023-11-22T10:19:37;101563.53;;;11.73;61.82
65553;BME280;72126;51.560;14.368;2023-11-22T10:22:07;101554.69;;;11.74;61.71
65553;BME280;72126;51.560;14.368;2023-11-22T10:24:33;101557.31;;;11.74;61.76
65553;BME280;72126;51.560;14.368;2023-11-22T10:26:58;101552.91;;;11.75;61.73
65553;BME280;72126;51.560;14.368;2023-11-22T10:29:25;101539.78;;;11.75;61.54
65553;BME280;72126;51.560;14.368;2023-11-22T10:31:50;101544.06;;;11.76;61.73
65553;BME280;72126;51.560;14.368;2023-11-22T10:34:19;101536.19;;;11.76;61.90
65553;BME280;72126;51.560;14.368;2023-11-22T10:36:44;101542.28;;;11.76;61.53
65553;BME280;72126;51.560;14.368;2023-11-22T10:39:10;101539.66;;;11.76;61.35
65553;BME280;72126;51.560;14.368;2023-11-22T10:41:37;101535.22;;;11.77;61.38
65553;BME280;72126;51.560;14.368;2023-11-22T10:44:02;101525.56;;;11.77;61.51
65553;BME280;72126;51.560;14.368;2023-11-22T10:46:28;101521.16;;;11.78;61.72
65553;BME280;72126;51.560;14.368;2023-11-22T10:48:53;101522.94;;;11.77;61.83
65553;BME280;72126;51.560;14.368;2023-11-22T10:51:18;101521.28;;;11.76;61.40
65553;BME280;72126;51.560;14.368;2023-11-22T10:53:48;101532.59;;;11.77;61.60
65553;BME280;72126;51.560;14.368;2023-11-22T10:56:15;101535.09;;;11.78;61.77
65553;BME280;72126;51.560;14.368;2023-11-22T10:58:50;101551.69;;;11.79;61.73
65553;BME280;72126;51.560;14.368;2023-11-22T11:01:16;101563.84;;;11.80;61.67
65553;BME280;72126;51.560;14.368;2023-11-22T11:03:45;101558.69;;;11.78;61.61
65553;BME280;72126;51.560;14.368;2023-11-22T11:06:11;101558.59;;;11.80;61.57
65553;BME280;72126;51.560;14.368;2023-11-22T11:08:37;101569.91;;;11.80;61.73
65553;BME280;72126;51.560;14.368;2023-11-22T11:11:04;101590.91;;;11.80;61.64
65553;BME280;72126;51.560;14.368;2023-11-22T11:13:29;101595.22;;;11.81;61.56
65553;BME280;72126;51.560;14.368;2023-11-22T11:15:55;101589.09;;;11.81;61.38
65553;BME280;72126;51.560;14.368;2023-11-22T11:18:22;101584.56;;;11.83;61.55
65553;BME280;72126;51.560;14.368;2023-11-22T11:20:50;101589.97;;;11.81;61.34
65553;BME280;72126;51.560;14.368;2023-11-22T11:23:23;101595.22;;;11.81;61.60
65553;BME280;72126;51.560;14.368;2023-11-22T11:25:50;101592.44;;;11.83;61.45
65553;BME280;72126;51.560;14.368;2023-11-22T11:28:17;101586.22;;;11.84;61.61
65553;BME280;72126;51.560;14.368;2023-11-22T11:30:47;101585.41;;;11.83;61.34
65553;BME280;72126;51.560;14.368;2023-11-22T11:33:13;101578.38;;;11.84;61.47
65553;BME280;72126;51.560;14.368;2023-11-22T11:35:42;101573.25;;;11.82;61.55
65553;BME280;72126;51.560;14.368;2023-11-22T11:38:07;101581.94;;;11.83;61.78
65553;BME280;72126;51.560;14.368;2023-11-22T11:40:34;101588.03;;;11.83;61.67
65553;BME280;72126;51.560;14.368;2023-11-22T11:42:59;101587.91;;;11.85;61.79
65553;BME280;72126;51.560;14.368;2023-11-22T11:45:24;101592.34;;;11.84;61.50
65553;BME280;72126;51.560;14.368;2023-11-22T11:47:51;101604.50;;;11.85;61.62
65553;BME280;72126;51.560;14.368;2023-11-22T11:50:17;101600.06;;;11.86;61.64
65553;BME280;72126;51.560;14.368;2023-11-22T11:52:42;101591.38;;;11.85;61.42
65553;BME280;72126;51.560;14.368;2023-11-22T11:55:07;101598.28;;;11.86;61.43
65553;BME280;72126;51.560;14.368;2023-11-22T11:57:32;101587.78;;;11.86;61.67
65553;BME280;72126;51.560;14.368;2023-11-22T11:59:58;101582.53;;;11.86;61.59
65553;BME280;72126;51.560;14.368;2023-11-22T12:02:23;101567.75;;;11.85;61.47
65553;BME280;72126;51.560;14.368;2023-11-22T12:04:48;101563.19;;;11.87;61.36
65553;BME280;72126;51.560;14.368;2023-11-22T12:07:13;101538.75;;;11.87;61.39
65553;BME280;72126;51.560;14.368;2023-11-22T12:09:38;101536.97;;;11.87;61.48
65553;BME280;72126;51.560;14.368;2023-11-22T12:12:04;101529.09;;;11.87;61.84
65553;BME280;72126;51.560;14.368;2023-11-22T12:14:29;101531.72;;;11.87;61.68
65553;BME280;72126;51.560;14.368;2023-11-22T12:16:55;101521.22;;;11.87;61.50
65553;BME280;72126;51.560;14.368;2023-11-22T12:19:28;101517.75;;;11.87;61.41
65553;BME280;72126;51.560;14.368;2023-11-22T12:21:54;101509.75;;;11.88;61.63
65553;BME280;72126;51.560;14.368;2023-11-22T12:24:19;101520.38;;;11.87;61.67
65553;BME280;72126;51.560;14.368;2023-11-22T12:26:45;101519.41;;;11.88;61.42
65553;BME280;72126;51.560;14.368;2023-11-22T12:29:14;101524.66;;;11.88;61.71
65553;BME280;72126;51.560;14.368;2023-11-22T12:31:54;101525.63;;;11.87;61.61